createdAt,value
2022-12-26T00:00:57.944Z,4.87
2022-12-26T00:03:36.086Z,4.87
2022-12-26T00:06:03.541Z,4.87
2022-12-26T00:08:30.800Z,4.87
2022-12-26T00:10:58.791Z,4.87
2022-12-26T00:13:38.384Z,4.85
2022-12-26T00:16:10.769Z,4.84
2022-12-26T00:18:39.131Z,4.82
2022-12-26T00:21:07.532Z,4.85
2022-12-26T00:23:36.007Z,4.86
2022-12-26T00:26:05.319Z,4.86
2022-12-26T00:28:33.269Z,4.86
2022-12-26T00:31:07.337Z,4.84
2022-12-26T00:33:35.634Z,4.80
2022-12-26T00:36:05.778Z,4.78
2022-12-26T00:38:35.581Z,4.75
2022-12-26T00:41:03.158Z,4.75
2022-12-26T00:43:30.762Z,4.74
2022-12-26T00:45:58.555Z,4.73
2022-12-26T00:48:26.014Z,4.71
2022-12-26T00:50:54.621Z,4.70
2022-12-26T00:53:22.602Z,4.69
2022-12-26T00:55:50.060Z,4.69
2022-12-26T00:58:17.918Z,4.70
2022-12-26T01:00:45.164Z,4.72
2022-12-26T01:03:13.298Z,4.73
2022-12-26T01:05:46.050Z,4.76
2022-12-26T01:08:19.481Z,4.77
2022-12-26T01:10:49.389Z,4.79
2022-12-26T01:13:16.569Z,4.79
2022-12-26T01:15:54.187Z,4.78
2022-12-26T01:18:22.339Z,4.78
2022-12-26T01:20:49.814Z,4.79
2022-12-26T01:23:17.694Z,4.80
2022-12-26T01:26:18.132Z,4.78
2022-12-26T01:28:32.315Z,4.78
2022-12-26T01:31:06.028Z,4.79
2022-12-26T01:33:33.498Z,4.81
2022-12-26T01:36:00.716Z,4.83
2022-12-26T01:38:28.105Z,4.85
2022-12-26T01:41:13.772Z,4.86
2022-12-26T01:43:59.802Z,4.88
2022-12-26T01:46:32.644Z,4.89
2022-12-26T01:49:06.835Z,4.90
2022-12-26T01:51:39.185Z,4.88
2022-12-26T01:54:39.125Z,4.89
2022-12-26T01:56:58.533Z,4.91
2022-12-26T01:59:31.067Z,4.93
2022-12-26T02:02:00.503Z,4.95
2022-12-26T02:04:55.379Z,4.94
2022-12-26T02:07:24.039Z,4.92
2022-12-26T02:09:51.443Z,4.91
2022-12-26T02:12:34.785Z,4.91
2022-12-26T02:15:10.425Z,4.91
2022-12-26T02:17:39.240Z,4.92
2022-12-26T02:20:10.355Z,4.92
2022-12-26T02:23:11.983Z,4.91
2022-12-26T02:25:58.073Z,4.91
2022-12-26T02:28:43.774Z,4.91
2022-12-26T02:31:16.944Z,4.91
2022-12-26T02:34:14.204Z,4.92
2022-12-26T02:36:56.749Z,4.94
2022-12-26T02:39:58.393Z,4.96
2022-12-26T02:43:06.871Z,4.98
2022-12-26T02:45:56.618Z,4.96
2022-12-26T02:48:59.377Z,4.94
2022-12-26T02:52:08.165Z,4.95
2022-12-26T02:54:59.550Z,4.98
2022-12-26T02:57:56.012Z,5.00
2022-12-26T03:00:41.875Z,5.02
2022-12-26T03:03:37.315Z,5.03
2022-12-26T03:06:29.195Z,5.00
2022-12-26T03:09:21.391Z,5.01
2022-12-26T03:12:11.959Z,5.03
2022-12-26T03:14:50.986Z,5.03
2022-12-26T03:17:26.458Z,5.04
2022-12-26T03:20:02.616Z,5.04
2022-12-26T03:22:45.518Z,5.01
2022-12-26T03:25:39.157Z,4.99
2022-12-26T03:28:06.340Z,5.00
2022-12-26T03:30:52.257Z,5.01
2022-12-26T03:33:41.095Z,5.01
2022-12-26T03:36:13.511Z,5.01
2022-12-26T03:39:08.027Z,5.02
2022-12-26T03:42:11.624Z,5.03
2022-12-26T03:45:34.363Z,5.02
2022-12-26T03:48:40.195Z,5.05
2022-12-26T03:51:34.482Z,5.07
2022-12-26T03:54:31.381Z,5.08
2022-12-26T03:57:24.199Z,5.06
2022-12-26T04:00:22.133Z,5.08
2022-12-26T04:03:10.000Z,5.08
2022-12-26T04:06:01.541Z,5.07
2022-12-26T04:08:56.898Z,5.08
2022-12-26T04:11:42.842Z,5.05
2022-12-26T04:14:52.463Z,5.04
2022-12-26T04:17:53.612Z,5.06
2022-12-26T04:20:43.757Z,5.07
2022-12-26T04:23:58.673Z,5.08
2022-12-26T04:26:54.091Z,5.10
2022-12-26T04:29:40.333Z,5.13
2022-12-26T04:33:01.641Z,5.14
2022-12-26T04:36:03.598Z,5.11
2022-12-26T04:38:54.448Z,5.10
2022-12-26T04:41:42.697Z,5.12
2022-12-26T04:44:12.144Z,5.14
2022-12-26T04:46:44.284Z,5.14
2022-12-26T04:49:33.367Z,5.14
2022-12-26T04:52:02.684Z,5.13
2022-12-26T04:54:29.739Z,5.14
2022-12-26T04:56:56.941Z,5.16
2022-12-26T04:59:24.702Z,5.18
2022-12-26T05:02:10.881Z,5.17
2022-12-26T05:04:56.940Z,5.17
2022-12-26T05:07:44.377Z,5.16
2022-12-26T05:10:24.007Z,5.16
2022-12-26T05:12:53.465Z,5.14
2022-12-26T05:15:20.871Z,5.14
2022-12-26T05:18:07.360Z,5.18
2022-12-26T05:20:46.608Z,5.19
2022-12-26T05:23:40.000Z,5.20
2022-12-26T05:26:37.536Z,5.19
2022-12-26T05:29:05.335Z,5.22
2022-12-26T05:31:36.080Z,5.24
2022-12-26T05:34:12.963Z,5.27
2022-12-26T05:36:45.704Z,5.31
2022-12-26T05:39:13.176Z,5.34
2022-12-26T05:41:43.610Z,5.32
2022-12-26T05:44:11.296Z,5.31
2022-12-26T05:46:39.257Z,5.32
2022-12-26T05:49:06.685Z,5.32
2022-12-26T05:51:34.472Z,5.33
2022-12-26T05:54:01.929Z,5.33
2022-12-26T05:56:29.334Z,5.36
2022-12-26T05:58:59.327Z,5.37
2022-12-26T06:01:28.530Z,5.36
2022-12-26T06:03:58.541Z,5.35
2022-12-26T06:06:26.504Z,5.35
2022-12-26T06:08:55.326Z,5.36
2022-12-26T06:11:24.852Z,5.36
2022-12-26T06:13:52.389Z,5.36
2022-12-26T06:16:19.902Z,5.37
2022-12-26T06:18:48.385Z,5.37
2022-12-26T06:21:18.789Z,5.40
2022-12-26T06:23:47.639Z,5.39
2022-12-26T06:26:15.360Z,5.38
2022-12-26T06:28:43.488Z,5.37
2022-12-26T06:31:21.452Z,5.38
2022-12-26T06:33:51.803Z,5.40
2022-12-26T06:36:21.988Z,5.41
2022-12-26T06:38:49.802Z,5.41
2022-12-26T06:41:20.213Z,5.40
2022-12-26T06:43:47.755Z,5.38
2022-12-26T06:46:20.429Z,5.39
2022-12-26T06:48:47.853Z,5.41
2022-12-26T06:51:20.938Z,5.39
2022-12-26T06:53:49.656Z,5.39
2022-12-26T06:56:19.891Z,5.40
2022-12-26T06:58:47.490Z,5.42
2022-12-26T07:01:17.738Z,5.44
2022-12-26T07:03:51.104Z,5.44
2022-12-26T07:06:31.054Z,5.44
2022-12-26T07:09:02.070Z,5.45
2022-12-26T07:11:33.345Z,5.47
2022-12-26T07:14:01.295Z,5.51
2022-12-26T07:16:28.784Z,5.52
2022-12-26T07:18:57.687Z,5.54
2022-12-26T07:21:25.996Z,5.55
2022-12-26T07:23:54.598Z,5.55
2022-12-26T07:26:23.121Z,5.53
2022-12-26T07:28:54.741Z,5.53
2022-12-26T07:31:22.310Z,5.53
2022-12-26T07:33:50.892Z,5.52
2022-12-26T07:36:20.117Z,5.51
2022-12-26T07:38:47.925Z,5.50
2022-12-26T07:41:33.749Z,5.50
2022-12-26T07:44:01.022Z,5.49
2022-12-26T07:46:28.327Z,5.51
2022-12-26T07:48:55.581Z,5.53
2022-12-26T07:51:22.760Z,5.55
2022-12-26T07:53:49.928Z,5.59
2022-12-26T07:56:17.137Z,5.62
2022-12-26T07:58:44.251Z,5.63
2022-12-26T08:01:11.622Z,5.65
2022-12-26T08:03:39.710Z,5.65
2022-12-26T08:06:07.073Z,5.67
2022-12-26T08:08:34.252Z,5.69
2022-12-26T08:11:03.463Z,5.69
2022-12-26T08:13:31.539Z,5.71
2022-12-26T08:15:59.049Z,5.74
2022-12-26T08:18:26.707Z,5.76
2022-12-26T08:20:53.838Z,5.77
2022-12-26T08:23:21.953Z,5.75
2022-12-26T08:25:49.161Z,5.75
2022-12-26T08:28:16.977Z,5.76
2022-12-26T08:30:44.529Z,5.79
2022-12-26T08:33:12.707Z,5.82
2022-12-26T08:35:40.550Z,5.85
2022-12-26T08:38:08.554Z,5.87
2022-12-26T08:40:44.324Z,5.87
2022-12-26T08:43:31.022Z,5.86
2022-12-26T08:46:07.129Z,5.89
2022-12-26T08:48:34.979Z,5.90
2022-12-26T08:51:05.543Z,5.92
2022-12-26T08:53:35.904Z,5.95
2022-12-26T08:56:06.163Z,5.98
2022-12-26T08:58:34.495Z,6.02
2022-12-26T09:01:13.004Z,6.03
2022-12-26T09:03:41.080Z,6.02
2022-12-26T09:06:09.219Z,6.03
2022-12-26T09:08:37.377Z,6.04
2022-12-26T09:11:15.064Z,6.05
2022-12-26T09:13:43.304Z,6.06
2022-12-26T09:16:19.408Z,6.07
2022-12-26T09:18:48.029Z,6.08
2022-12-26T09:21:16.591Z,6.08
2022-12-26T09:23:44.191Z,6.08
2022-12-26T09:26:14.672Z,6.08
2022-12-26T09:28:42.772Z,6.09
2022-12-26T09:31:13.542Z,6.10
2022-12-26T09:33:41.091Z,6.12
2022-12-26T09:36:14.825Z,6.13
2022-12-26T09:38:43.982Z,6.15
2022-12-26T09:41:26.233Z,6.17
2022-12-26T09:43:58.752Z,6.18
2022-12-26T09:46:31.027Z,6.18
2022-12-26T09:49:03.109Z,6.20
2022-12-26T09:51:32.524Z,6.21
2022-12-26T09:54:02.531Z,6.21
2022-12-26T09:59:26.252Z,6.25
2022-12-26T10:01:54.010Z,6.27
2022-12-26T10:04:30.493Z,6.31
2022-12-26T10:06:58.006Z,6.34
2022-12-26T10:10:02.574Z,6.36
2022-12-26T10:12:42.700Z,6.40
2022-12-26T10:15:27.524Z,6.43
2022-12-26T10:18:26.105Z,6.47
2022-12-26T10:20:53.234Z,6.51
2022-12-26T10:23:40.931Z,6.56
2022-12-26T10:26:11.231Z,6.60
2022-12-26T10:29:02.687Z,6.64
2022-12-26T10:31:45.497Z,6.68
2022-12-26T10:34:47.862Z,6.73
2022-12-26T10:37:33.260Z,6.78
2022-12-26T10:40:12.521Z,6.83
2022-12-26T10:42:43.093Z,6.88
2022-12-26T10:45:28.447Z,6.93
2022-12-26T10:47:56.145Z,6.99
2022-12-26T10:50:29.220Z,7.05
2022-12-26T10:52:58.472Z,7.09
2022-12-26T10:55:34.380Z,7.12
2022-12-26T10:58:18.117Z,7.16
2022-12-26T11:00:45.557Z,7.22
2022-12-26T11:03:18.242Z,7.27
2022-12-26T11:06:09.175Z,7.32
2022-12-26T11:08:50.655Z,7.38
2022-12-26T11:11:18.216Z,7.42
2022-12-26T11:14:02.030Z,7.48
2022-12-26T11:16:36.105Z,7.54
2022-12-26T11:19:04.107Z,7.59
2022-12-26T11:21:32.904Z,7.64
2022-12-26T11:24:09.360Z,7.68
2022-12-26T11:26:38.181Z,7.72
2022-12-26T11:29:12.013Z,7.76
2022-12-26T11:31:49.804Z,7.78
2022-12-26T11:34:24.824Z,7.80
2022-12-26T11:36:52.076Z,7.83
2022-12-26T11:39:37.919Z,7.84
2022-12-26T11:42:12.979Z,7.85
2022-12-26T11:44:45.698Z,7.88
2022-12-26T11:47:15.593Z,7.93
2022-12-26T11:50:04.477Z,8.02
2022-12-26T11:52:47.350Z,8.12
2022-12-26T11:55:27.982Z,8.18
2022-12-26T11:58:10.939Z,8.25
2022-12-26T12:00:43.259Z,8.31
2022-12-26T12:03:17.875Z,8.35
2022-12-26T12:06:11.074Z,8.38
2022-12-26T12:09:05.583Z,8.42
2022-12-26T12:11:49.601Z,8.43
2022-12-26T12:14:22.452Z,8.44
2022-12-26T12:16:52.670Z,8.45
2022-12-26T12:19:31.048Z,8.46
2022-12-26T12:22:04.430Z,8.47
2022-12-26T12:24:44.463Z,8.48
2022-12-26T12:27:11.538Z,8.48
2022-12-26T12:29:47.708Z,8.47
2022-12-26T12:32:29.178Z,8.48
2022-12-26T12:35:11.783Z,8.47
2022-12-26T12:38:14.428Z,8.47
2022-12-26T12:41:11.169Z,8.46
2022-12-26T12:43:54.475Z,8.46
2022-12-26T12:46:39.145Z,8.45
2022-12-26T12:49:13.509Z,8.44
2022-12-26T12:51:52.867Z,8.43
2022-12-26T12:54:22.962Z,8.43
2022-12-26T12:56:57.240Z,8.42
2022-12-26T12:59:24.284Z,8.43
2022-12-26T13:01:57.835Z,8.42
2022-12-26T13:04:33.365Z,8.40
2022-12-26T13:07:07.811Z,8.40
2022-12-26T13:09:53.002Z,8.40
2022-12-26T13:12:38.747Z,8.41
2022-12-26T13:15:14.489Z,8.41
2022-12-26T13:17:52.204Z,8.41
2022-12-26T13:20:48.669Z,8.42
2022-12-26T13:23:43.879Z,8.42
2022-12-26T13:26:19.963Z,8.43
2022-12-26T13:28:59.309Z,8.43
2022-12-26T13:31:33.231Z,8.43
2022-12-26T13:34:02.410Z,8.44
2022-12-26T13:36:43.008Z,8.46
2022-12-26T13:39:13.294Z,8.47
2022-12-26T13:42:07.688Z,8.48
2022-12-26T13:44:34.808Z,8.49
2022-12-26T13:47:02.403Z,8.48
2022-12-26T13:49:36.454Z,8.48
2022-12-26T13:52:14.893Z,8.48
2022-12-26T13:54:48.217Z,8.48
2022-12-26T13:57:50.314Z,8.48
2022-12-26T14:00:26.044Z,8.48
2022-12-26T14:03:31.134Z,8.48
2022-12-26T14:06:23.366Z,8.48
2022-12-26T14:08:59.635Z,8.47
2022-12-26T14:11:57.822Z,8.46
2022-12-26T14:14:52.482Z,8.46
2022-12-26T14:17:33.731Z,8.46
2022-12-26T14:20:06.833Z,8.46
2022-12-26T14:22:34.031Z,8.46
2022-12-26T14:25:16.466Z,8.46
2022-12-26T14:27:55.628Z,8.44
2022-12-26T14:30:31.805Z,8.42
2022-12-26T14:33:18.013Z,8.41
2022-12-26T14:36:03.731Z,8.40
2022-12-26T14:38:51.805Z,8.37
2022-12-26T14:41:39.163Z,8.37
2022-12-26T14:44:11.630Z,8.37
2022-12-26T14:46:40.397Z,8.38
2022-12-26T14:49:23.932Z,8.39
2022-12-26T14:51:51.733Z,8.39
2022-12-26T14:54:36.110Z,8.38
2022-12-26T14:57:38.275Z,8.37
2022-12-26T15:00:35.245Z,8.35
2022-12-26T15:03:02.517Z,8.33
2022-12-26T15:05:37.663Z,8.32
2022-12-26T15:08:36.184Z,8.32
2022-12-26T15:11:25.448Z,8.34
2022-12-26T15:14:25.022Z,8.32
2022-12-26T15:16:54.908Z,8.30
2022-12-26T15:19:49.573Z,8.29
2022-12-26T15:22:33.306Z,8.30
2022-12-26T15:25:43.798Z,8.30
2022-12-26T15:28:29.202Z,8.31
2022-12-26T15:31:18.118Z,8.31
2022-12-26T15:34:09.901Z,8.33
2022-12-26T15:36:55.525Z,8.34
2022-12-26T15:39:54.089Z,8.34
2022-12-26T15:42:31.380Z,8.32
2022-12-26T15:45:10.429Z,8.31
2022-12-26T15:48:01.518Z,8.31
2022-12-26T15:50:36.481Z,8.31
2022-12-26T15:53:12.511Z,8.31
2022-12-26T15:56:02.371Z,8.32
2022-12-26T15:59:09.476Z,8.33
2022-12-26T16:01:42.511Z,8.33
2022-12-26T16:04:16.069Z,8.31
2022-12-26T16:06:46.121Z,8.29
2022-12-26T16:09:39.091Z,8.29
2022-12-26T16:12:18.662Z,8.29
2022-12-26T16:14:46.096Z,8.29
2022-12-26T16:17:15.959Z,8.28
2022-12-26T16:19:45.886Z,8.27
2022-12-26T16:22:46.941Z,8.27
2022-12-26T16:25:19.699Z,8.26
2022-12-26T16:27:49.641Z,8.25
2022-12-26T16:30:21.452Z,8.25
2022-12-26T16:32:49.933Z,8.26
2022-12-26T16:35:25.839Z,8.25
2022-12-26T16:37:55.677Z,8.26
2022-12-26T16:40:30.532Z,8.26
2022-12-26T16:43:06.182Z,8.27
2022-12-26T16:45:34.921Z,8.28
2022-12-26T16:48:06.564Z,8.28
2022-12-26T16:50:35.776Z,8.27
2022-12-26T16:53:11.160Z,8.26
2022-12-26T16:55:45.257Z,8.26
2022-12-26T16:58:37.164Z,8.24
2022-12-26T17:01:09.753Z,8.24
2022-12-26T17:04:16.553Z,8.25
2022-12-26T17:06:52.464Z,8.26
2022-12-26T17:09:22.660Z,8.26
2022-12-26T17:12:03.611Z,8.27
2022-12-26T17:14:36.951Z,8.25
2022-12-26T17:17:07.580Z,8.22
2022-12-26T17:19:37.136Z,8.20
2022-12-26T17:22:10.275Z,8.19
2022-12-26T17:24:37.478Z,8.20
2022-12-26T17:27:25.872Z,8.20
2022-12-26T17:29:57.968Z,8.20
2022-12-26T17:32:31.953Z,8.20
2022-12-26T17:35:06.937Z,8.21
2022-12-26T17:37:34.446Z,8.20
2022-12-26T17:40:13.916Z,8.18
2022-12-26T17:42:48.480Z,8.15
2022-12-26T17:45:19.386Z,8.13
2022-12-26T17:47:46.728Z,8.11
2022-12-26T17:50:14.317Z,8.10
2022-12-26T17:52:41.582Z,8.11
2022-12-26T17:55:21.310Z,8.11
2022-12-26T17:57:48.901Z,8.11
2022-12-26T18:00:22.889Z,8.08
2022-12-26T18:02:50.915Z,8.07
2022-12-26T18:05:20.081Z,8.06
2022-12-26T18:07:49.765Z,8.07
2022-12-26T18:10:26.337Z,8.08
2022-12-26T18:12:53.513Z,8.10
2022-12-26T18:15:21.904Z,8.11
2022-12-26T18:17:51.112Z,8.08
2022-12-26T18:20:28.147Z,8.10
2022-12-26T18:22:56.273Z,8.10
2022-12-26T18:25:25.680Z,8.11
2022-12-26T18:27:53.744Z,8.11
2022-12-26T18:30:24.046Z,8.12
2022-12-26T18:32:53.139Z,8.12
2022-12-26T18:35:21.344Z,8.11
2022-12-26T18:37:53.214Z,8.11
2022-12-26T18:40:26.653Z,8.10
2022-12-26T18:42:53.780Z,8.10
2022-12-26T18:45:21.171Z,8.11
2022-12-26T18:47:48.308Z,8.12
2022-12-26T18:50:16.718Z,8.12
2022-12-26T18:52:46.523Z,8.12
2022-12-26T18:55:17.127Z,8.10
2022-12-26T18:57:44.465Z,8.09
2022-12-26T19:00:14.712Z,8.09
2022-12-26T19:02:42.066Z,8.09
2022-12-26T19:05:27.775Z,8.10
2022-12-26T19:07:55.177Z,8.11
2022-12-26T19:10:25.139Z,8.11
2022-12-26T19:12:53.093Z,8.12
2022-12-26T19:15:20.559Z,8.12
2022-12-26T19:17:47.679Z,8.12
2022-12-26T19:20:23.837Z,8.10
2022-12-26T19:22:52.089Z,8.09
2022-12-26T19:25:21.218Z,8.09
2022-12-26T19:27:49.800Z,8.09
2022-12-26T19:30:18.633Z,8.06
2022-12-26T19:32:46.307Z,8.04
2022-12-26T19:35:14.434Z,8.02
2022-12-26T19:37:42.013Z,8.01
2022-12-26T19:40:10.760Z,8.00
2022-12-26T19:42:38.553Z,7.99
2022-12-26T19:45:07.048Z,8.00
2022-12-26T19:47:34.908Z,8.00
2022-12-26T19:50:03.445Z,7.98
2022-12-26T19:52:30.620Z,7.96
2022-12-26T19:54:57.806Z,7.93
2022-12-26T19:57:24.985Z,7.92
2022-12-26T19:59:52.382Z,7.91
2022-12-26T20:02:19.780Z,7.90
2022-12-26T20:04:47.113Z,7.89
2022-12-26T20:07:14.395Z,7.88
2022-12-26T20:09:41.547Z,7.88
2022-12-26T20:12:08.781Z,7.88
2022-12-26T20:14:36.013Z,7.88
2022-12-26T20:17:05.473Z,7.86
2022-12-26T20:19:35.090Z,7.84
2022-12-26T20:22:02.287Z,7.83
2022-12-26T20:24:29.395Z,7.84
2022-12-26T20:26:56.570Z,7.83
2022-12-26T20:29:23.755Z,7.82
2022-12-26T20:31:50.927Z,7.81
2022-12-26T20:34:19.334Z,7.80
2022-12-26T20:36:46.477Z,7.80
2022-12-26T20:39:17.157Z,7.80
2022-12-26T20:41:45.206Z,7.80
2022-12-26T20:44:13.786Z,7.80
2022-12-26T20:46:42.363Z,7.78
2022-12-26T20:49:10.286Z,7.73
2022-12-26T20:51:40.536Z,7.70
2022-12-26T20:54:09.394Z,7.68
2022-12-26T20:56:37.889Z,7.65
2022-12-26T20:59:06.384Z,7.64
2022-12-26T21:01:37.760Z,7.63
2022-12-26T21:04:05.561Z,7.63
2022-12-26T21:06:35.291Z,7.62
2022-12-26T21:09:04.346Z,7.62
2022-12-26T21:11:38.338Z,7.62
2022-12-26T21:14:08.379Z,7.63
2022-12-26T21:16:37.177Z,7.63
2022-12-26T21:19:09.405Z,7.63
2022-12-26T21:21:44.404Z,7.62
2022-12-26T21:24:15.452Z,7.61
2022-12-26T21:26:43.404Z,7.61
2022-12-26T21:29:23.277Z,7.60
2022-12-26T21:31:50.987Z,7.61
2022-12-26T21:34:20.790Z,7.60
2022-12-26T21:37:06.536Z,7.60
2022-12-26T21:39:35.622Z,7.59
2022-12-26T21:42:03.384Z,7.59
2022-12-26T21:44:30.518Z,7.61
2022-12-26T21:46:57.677Z,7.63
2022-12-26T21:49:24.982Z,7.64
2022-12-26T21:51:52.433Z,7.65
2022-12-26T21:54:41.051Z,7.64
2022-12-26T21:57:13.757Z,7.67
2022-12-26T21:59:56.117Z,7.68
2022-12-26T22:02:47.886Z,7.69
2022-12-26T22:05:16.220Z,7.70
2022-12-26T22:07:43.893Z,7.71
2022-12-26T22:10:30.134Z,7.72
2022-12-26T22:12:57.681Z,7.71
2022-12-26T22:15:44.099Z,7.70
2022-12-26T22:18:11.540Z,7.71
2022-12-26T22:20:38.663Z,7.72
2022-12-26T22:23:05.731Z,7.72
2022-12-26T22:25:33.167Z,7.73
2022-12-26T22:28:00.497Z,7.73
2022-12-26T22:30:27.620Z,7.75
2022-12-26T22:32:55.014Z,7.76
2022-12-26T22:35:22.688Z,7.76
2022-12-26T22:37:49.815Z,7.75
2022-12-26T22:40:17.077Z,7.74
2022-12-26T22:42:44.268Z,7.75
2022-12-26T22:45:11.521Z,7.75
2022-12-26T22:47:38.627Z,7.75
2022-12-26T22:50:06.206Z,7.75
2022-12-26T22:52:33.294Z,7.74
2022-12-26T22:55:00.410Z,7.74
2022-12-26T22:57:27.554Z,7.71
2022-12-26T23:00:10.829Z,7.70
2022-12-26T23:02:38.402Z,7.68
2022-12-26T23:05:06.648Z,7.66
2022-12-26T23:07:34.145Z,7.65
2022-12-26T23:10:01.536Z,7.63
2022-12-26T23:12:44.223Z,7.62
2022-12-26T23:15:16.605Z,7.60
2022-12-26T23:18:09.708Z,7.61
2022-12-26T23:20:57.037Z,7.63
2022-12-26T23:23:24.595Z,7.64
2022-12-26T23:25:51.677Z,7.65
2022-12-26T23:28:37.534Z,7.63
2022-12-26T23:31:05.007Z,7.62
2022-12-26T23:33:32.704Z,7.61
2022-12-26T23:36:00.289Z,7.62
2022-12-26T23:38:27.785Z,7.62
2022-12-26T23:40:54.952Z,7.61
2022-12-26T23:43:22.161Z,7.62
2022-12-26T23:45:49.283Z,7.63
2022-12-26T23:48:16.502Z,7.62
2022-12-26T23:50:43.766Z,7.63
2022-12-26T23:53:10.934Z,7.64
2022-12-26T23:55:41.512Z,7.65
2022-12-26T23:58:08.744Z,7.66
